createdAt,value
2017-06-09T00:00:08.745Z,76.84
2017-06-09T00:00:49.276Z,76.84
2017-06-09T00:01:29.856Z,77.04
2017-06-09T00:02:10.508Z,76.94
2017-06-09T00:02:51.029Z,77.04
2017-06-09T00:03:31.627Z,76.75
2017-06-09T00:04:12.263Z,76.94
2017-06-09T00:04:52.814Z,76.75
2017-06-09T00:05:33.360Z,76.94
2017-06-09T00:06:14.025Z,77.13
2017-06-09T00:06:54.660Z,77.23
2017-06-09T00:07:35.308Z,77.23
2017-06-09T00:08:15.873Z,77.23
2017-06-09T00:08:56.524Z,77.04
2017-06-09T00:09:38.097Z,76.84
2017-06-09T00:10:18.639Z,76.84
2017-06-09T00:10:59.288Z,77.13
2017-06-09T00:11:39.839Z,77.23
2017-06-09T00:12:20.504Z,77.04
2017-06-09T00:13:01.043Z,77.04
2017-06-09T00:13:41.595Z,77.04
2017-06-09T00:14:22.117Z,77.23
2017-06-09T00:15:02.723Z,77.23
2017-06-09T00:15:43.320Z,77.23
2017-06-09T00:16:23.898Z,77.23
2017-06-09T00:17:04.428Z,77.33
2017-06-09T00:17:45.014Z,77.33
2017-06-09T00:18:25.732Z,77.04
2017-06-09T00:19:06.310Z,77.04
2017-06-09T00:19:46.829Z,77.42
2017-06-09T00:20:27.431Z,77.23
2017-06-09T00:21:08.034Z,77.42
2017-06-09T00:21:48.611Z,77.33
2017-06-09T00:22:29.135Z,77.51
2017-06-09T00:23:09.736Z,77.42
2017-06-09T00:23:50.341Z,77.23
2017-06-09T00:24:30.934Z,77.61
2017-06-09T00:25:11.488Z,77.23
2017-06-09T00:25:52.047Z,77.8
2017-06-09T00:26:32.668Z,77.23
2017-06-09T00:27:13.241Z,77.33
2017-06-09T00:27:53.813Z,77.33
2017-06-09T00:28:34.471Z,77.42
2017-06-09T00:29:15.051Z,77.33
2017-06-09T00:29:55.593Z,77.42
2017-06-09T00:30:36.181Z,77.9
2017-06-09T00:31:16.798Z,77.99
2017-06-09T00:31:57.352Z,77.9
2017-06-09T00:32:37.904Z,77.9
2017-06-09T00:33:18.454Z,77.7
2017-06-09T00:33:59.005Z,77.7
2017-06-09T00:34:39.556Z,77.7
2017-06-09T00:35:20.207Z,77.76
2017-06-09T00:36:00.840Z,77.67
2017-06-09T00:36:41.411Z,77.86
2017-06-09T00:37:21.968Z,77.86
2017-06-09T00:38:02.627Z,77.76
2017-06-09T00:38:43.166Z,77.67
2017-06-09T00:39:23.815Z,77.8
2017-06-09T00:40:04.362Z,77.8
2017-06-09T00:40:44.916Z,77.76
2017-06-09T00:41:25.464Z,77.48
2017-06-09T00:42:06.014Z,77.86
2017-06-09T00:42:46.573Z,77.76
2017-06-09T00:43:28.141Z,77.67
2017-06-09T00:44:08.796Z,77.48
2017-06-09T00:44:49.358Z,77.57
2017-06-09T00:45:29.943Z,77.61
2017-06-09T00:46:10.498Z,77.95
2017-06-09T00:46:51.014Z,77.76
2017-06-09T00:47:31.626Z,77.95
2017-06-09T00:48:12.251Z,77.95
2017-06-09T00:48:52.879Z,77.86
2017-06-09T00:49:33.490Z,77.86
2017-06-09T00:50:14.124Z,77.86
2017-06-09T00:50:54.667Z,77.67
2017-06-09T00:51:35.203Z,77.57
2017-06-09T00:52:15.778Z,77.76
2017-06-09T00:52:56.346Z,77.67
2017-06-09T00:53:36.989Z,78.14
2017-06-09T00:54:17.624Z,77.95
2017-06-09T00:54:58.161Z,78.05
2017-06-09T00:55:38.747Z,78.14
2017-06-09T00:56:19.405Z,78.24
2017-06-09T00:57:00.049Z,77.95
2017-06-09T00:57:40.700Z,78.05
2017-06-09T00:58:21.349Z,78.05
2017-06-09T00:59:01.882Z,78.05
2017-06-09T00:59:42.465Z,78.05
2017-06-09T01:00:23.132Z,77.95
2017-06-09T01:01:03.789Z,78.24
2017-06-09T01:01:44.409Z,78.14
2017-06-09T01:02:24.966Z,78.14
2017-06-09T01:03:06.534Z,78.14
2017-06-09T01:03:47.165Z,78.14
2017-06-09T01:04:27.746Z,78.14
2017-06-09T01:05:09.322Z,78.14
2017-06-09T01:05:49.984Z,78.14
2017-06-09T01:06:30.626Z,78.63
2017-06-09T01:07:11.302Z,78.14
2017-06-09T01:07:51.932Z,77.86
2017-06-09T01:08:32.588Z,78.63
2017-06-09T01:09:14.433Z,78.14
2017-06-09T01:09:55.038Z,78.43
2017-06-09T01:10:35.635Z,78.43
2017-06-09T01:11:16.154Z,78.53
2017-06-09T01:11:56.769Z,78.53
2017-06-09T01:12:37.342Z,78.63
2017-06-09T01:13:17.933Z,78.53
2017-06-09T01:13:58.464Z,78.72
2017-06-09T01:14:39.057Z,78.43
2017-06-09T01:15:19.655Z,78.63
2017-06-09T01:16:00.244Z,78.63
2017-06-09T01:16:40.764Z,78.43
2017-06-09T01:17:21.367Z,78.34
2017-06-09T01:18:01.958Z,78.53
2017-06-09T01:18:42.549Z,78.53
2017-06-09T01:19:23.064Z,78.53
2017-06-09T01:20:03.678Z,78.53
2017-06-09T01:20:44.333Z,78.24
2017-06-09T01:21:24.873Z,78.43
2017-06-09T01:22:05.448Z,78.43
2017-06-09T01:22:45.983Z,78.24
2017-06-09T01:23:26.527Z,78.14
2017-06-09T01:24:07.065Z,78.43
2017-06-09T01:24:47.630Z,78.34
2017-06-09T01:25:28.222Z,78.43
2017-06-09T01:26:08.805Z,78.24
2017-06-09T01:26:49.341Z,78.63
2017-06-09T01:27:29.935Z,78.43
2017-06-09T01:28:10.525Z,78.34
2017-06-09T01:28:51.122Z,78.43
2017-06-09T01:29:31.639Z,78.53
2017-06-09T01:30:12.241Z,78.53
2017-06-09T01:30:52.794Z,78.72
2017-06-09T01:31:33.361Z,78.43
2017-06-09T01:32:13.988Z,78.63
2017-06-09T01:32:54.557Z,78.53
2017-06-09T01:33:35.228Z,78.43
2017-06-09T01:34:15.759Z,78.34
2017-06-09T01:34:56.332Z,78.63
2017-06-09T01:35:36.937Z,78.63
2017-06-09T01:36:17.458Z,78.72
2017-06-09T01:36:58.063Z,78.43
2017-06-09T01:37:38.639Z,78.81
2017-06-09T01:38:19.235Z,78.81
2017-06-09T01:38:59.763Z,78.63
2017-06-09T01:39:40.359Z,79.1
2017-06-09T01:40:20.933Z,79.2
2017-06-09T01:41:01.540Z,79.1
2017-06-09T01:41:42.065Z,78.91
2017-06-09T01:42:22.668Z,79.2
2017-06-09T01:43:03.240Z,79.2
2017-06-09T01:43:43.840Z,78.97
2017-06-09T01:44:24.370Z,79.2
2017-06-09T01:45:04.998Z,79
2017-06-09T01:45:45.627Z,79.06
2017-06-09T01:46:26.175Z,79.1
2017-06-09T01:47:06.724Z,78.91
2017-06-09T01:47:47.273Z,79.1
2017-06-09T01:48:27.826Z,79
2017-06-09T01:49:08.375Z,78.97
2017-06-09T01:49:48.929Z,79.06
2017-06-09T01:50:29.490Z,79.1
2017-06-09T01:51:10.173Z,79
2017-06-09T01:51:50.794Z,79
2017-06-09T01:52:31.331Z,79.1
2017-06-09T01:53:11.903Z,78.91
2017-06-09T01:53:52.536Z,79
2017-06-09T01:54:33.085Z,79.2
2017-06-09T01:55:13.638Z,79
2017-06-09T01:55:54.201Z,79.16
2017-06-09T01:56:34.859Z,79.06
2017-06-09T01:57:15.513Z,79.06
2017-06-09T01:57:56.148Z,79.06
2017-06-09T01:58:36.706Z,79.06
2017-06-09T01:59:17.248Z,79.06
2017-06-09T01:59:57.884Z,79.29
2017-06-09T02:00:38.417Z,79.06
2017-06-09T02:01:19.047Z,79.06
2017-06-09T02:01:59.647Z,79.06
2017-06-09T02:02:40.185Z,79.16
2017-06-09T02:03:20.774Z,79.16
2017-06-09T02:04:01.401Z,79.06
2017-06-09T02:04:41.919Z,79.2
2017-06-09T02:05:22.536Z,79.06
2017-06-09T02:06:03.149Z,78.97
2017-06-09T02:06:43.676Z,78.97
2017-06-09T02:07:24.308Z,79.44
2017-06-09T02:08:04.904Z,79.54
2017-06-09T02:08:45.429Z,79.25
2017-06-09T02:09:26.036Z,79.25
2017-06-09T02:10:06.660Z,79.25
2017-06-09T02:10:47.184Z,79.16
2017-06-09T02:11:27.781Z,79.25
2017-06-09T02:12:08.318Z,79.25
2017-06-09T02:12:48.890Z,79.25
2017-06-09T02:13:29.412Z,79.06
2017-06-09T02:14:09.964Z,79.16
2017-06-09T02:14:50.564Z,79.06
2017-06-09T02:15:31.162Z,79.25
2017-06-09T02:16:11.718Z,79.54
2017-06-09T02:16:52.284Z,79.25
2017-06-09T02:17:32.869Z,79.35
2017-06-09T02:18:13.473Z,79.44
2017-06-09T02:18:53.983Z,79.16
2017-06-09T02:19:34.625Z,79.25
2017-06-09T02:20:15.225Z,79.83
2017-06-09T02:20:55.757Z,79.93
2017-06-09T02:21:36.346Z,79.64
2017-06-09T02:22:16.980Z,79.54
2017-06-09T02:22:57.507Z,79.73
2017-06-09T02:23:38.105Z,79.83
2017-06-09T02:24:18.726Z,79.73
2017-06-09T02:24:59.320Z,79.64
2017-06-09T02:25:39.820Z,79.44
2017-06-09T02:26:20.384Z,79.93
2017-06-09T02:27:00.937Z,79.93
2017-06-09T02:27:41.590Z,79.93
2017-06-09T02:28:22.138Z,79.93
2017-06-09T02:29:02.694Z,79.73
2017-06-09T02:29:43.214Z,79.73
2017-06-09T02:30:23.794Z,79.64
2017-06-09T02:31:04.399Z,79.64
2017-06-09T02:31:44.994Z,79.83
2017-06-09T02:32:25.523Z,79.73
2017-06-09T02:33:06.126Z,79.73
2017-06-09T02:33:46.699Z,79.83
2017-06-09T02:34:27.301Z,79.83
2017-06-09T02:35:07.836Z,79.64
2017-06-09T02:35:48.814Z,80.11
2017-06-09T02:36:29.413Z,79.73
2017-06-09T02:37:10.007Z,79.54
2017-06-09T02:37:50.531Z,79.54
2017-06-09T02:38:31.129Z,79.93
2017-06-09T02:39:11.718Z,79.64
2017-06-09T02:39:52.269Z,79.35
2017-06-09T02:40:32.883Z,79.64
2017-06-09T02:41:13.415Z,79.73
2017-06-09T02:41:53.920Z,79.93
2017-06-09T02:42:34.557Z,80.02
2017-06-09T02:43:15.170Z,80.21
2017-06-09T02:43:55.696Z,80.4
2017-06-09T02:44:36.309Z,80.21
2017-06-09T02:45:16.958Z,80.11
2017-06-09T02:45:57.480Z,80.21
2017-06-09T02:46:38.057Z,80.4
2017-06-09T02:47:18.681Z,80.3
2017-06-09T02:47:59.215Z,80.4
2017-06-09T02:48:39.799Z,80.21
2017-06-09T02:49:20.436Z,80.3
2017-06-09T02:50:00.953Z,80.21
2017-06-09T02:50:41.561Z,80.4
2017-06-09T02:51:22.143Z,80.59
2017-06-09T02:52:02.733Z,80.21
2017-06-09T02:52:43.265Z,80.21
2017-06-09T02:53:23.856Z,80.21
2017-06-09T02:54:04.445Z,80.5
2017-06-09T02:54:45.018Z,80.5
2017-06-09T02:55:25.625Z,80.11
2017-06-09T02:56:06.244Z,80.21
2017-06-09T02:56:46.775Z,80.02
2017-06-09T02:57:27.365Z,80.21
2017-06-09T02:58:08.008Z,80.11
2017-06-09T02:58:48.530Z,80.02
2017-06-09T02:59:29.141Z,79.54
2017-06-09T03:00:09.753Z,80.02
2017-06-09T03:00:50.297Z,79.54
2017-06-09T03:01:31.218Z,79.54
2017-06-09T03:02:11.880Z,80.11
2017-06-09T03:02:52.474Z,79.54
2017-06-09T03:03:33.050Z,80.11
2017-06-09T03:04:14.944Z,80.02
2017-06-09T03:04:55.555Z,80.11
2017-06-09T03:05:36.085Z,80.11
2017-06-09T03:06:16.686Z,80.21
2017-06-09T03:06:57.311Z,80.5
2017-06-09T03:07:37.834Z,80.4
2017-06-09T03:08:18.434Z,80.4
2017-06-09T03:08:59.067Z,80.5
2017-06-09T03:09:39.619Z,80.21
2017-06-09T03:10:20.191Z,80.21
2017-06-09T03:11:00.740Z,80.21
2017-06-09T03:11:41.307Z,80.21
2017-06-09T03:12:21.975Z,80.3
2017-06-09T03:13:02.593Z,80.11
2017-06-09T03:13:43.148Z,80.21
2017-06-09T03:14:23.696Z,80.21
2017-06-09T03:15:04.247Z,80.3
2017-06-09T03:15:44.871Z,80.02
2017-06-09T03:16:25.401Z,80.02
2017-06-09T03:17:06.013Z,80.11
2017-06-09T03:17:46.623Z,80.3
2017-06-09T03:18:27.149Z,80.3
2017-06-09T03:19:07.763Z,80.3
2017-06-09T03:19:48.376Z,80.59
2017-06-09T03:20:28.925Z,80.21
2017-06-09T03:21:09.519Z,80.4
2017-06-09T03:21:50.058Z,80.5
2017-06-09T03:22:30.608Z,80.5
2017-06-09T03:23:11.270Z,80.21
2017-06-09T03:23:51.817Z,80.11
2017-06-09T03:24:32.456Z,80.59
2017-06-09T03:25:13.013Z,80.59
2017-06-09T03:25:53.565Z,80.5
2017-06-09T03:26:34.126Z,80.4
2017-06-09T03:27:14.665Z,80.21
2017-06-09T03:27:55.219Z,80.59
2017-06-09T03:28:35.766Z,80.59
2017-06-09T03:29:16.317Z,80.21
2017-06-09T03:29:56.871Z,80.3
2017-06-09T03:30:37.497Z,80.5
2017-06-09T03:31:18.044Z,80.3
2017-06-09T03:31:58.620Z,80.3
2017-06-09T03:32:39.249Z,80.17
2017-06-09T03:33:19.781Z,80.27
2017-06-09T03:34:00.383Z,80.27
2017-06-09T03:34:41.006Z,80.17
2017-06-09T03:35:21.540Z,80.17
2017-06-09T03:36:02.141Z,80.3
2017-06-09T03:36:42.721Z,80.17
2017-06-09T03:37:23.309Z,80.5
2017-06-09T03:38:03.851Z,80.3
2017-06-09T03:38:44.444Z,80.59
2017-06-09T03:39:25.055Z,80.4
2017-06-09T03:40:05.614Z,80.59
2017-06-09T03:40:46.171Z,80.59
2017-06-09T03:41:26.716Z,80.11
2017-06-09T03:42:07.266Z,80.5
2017-06-09T03:42:47.814Z,80.11
2017-06-09T03:43:28.367Z,80.11
2017-06-09T03:44:08.919Z,80.02
2017-06-09T03:44:49.475Z,80.21
2017-06-09T03:45:30.047Z,80.02
2017-06-09T03:46:10.592Z,80.4
2017-06-09T03:46:51.156Z,80.4
2017-06-09T03:47:31.695Z,80.21
2017-06-09T03:48:12.244Z,79.83
2017-06-09T03:48:52.845Z,79.64
2017-06-09T03:49:33.454Z,80.21
2017-06-09T03:50:14.088Z,79.73
2017-06-09T03:50:54.606Z,79.73
2017-06-09T03:51:35.203Z,79.93
2017-06-09T03:52:15.842Z,79.44
2017-06-09T03:52:56.369Z,79.73
2017-06-09T03:53:36.989Z,79.93
2017-06-09T03:54:17.593Z,79.93
2017-06-09T03:54:58.113Z,79.29
2017-06-09T03:55:38.723Z,79.29
2017-06-09T03:56:19.308Z,79.1
2017-06-09T03:56:59.897Z,79.2
2017-06-09T03:57:40.420Z,78.91
2017-06-09T03:58:21.022Z,79.1
2017-06-09T03:59:01.621Z,79.1
2017-06-09T03:59:42.204Z,79.1
2017-06-09T04:00:22.732Z,79
2017-06-09T04:01:03.333Z,79.2
2017-06-09T04:01:43.934Z,78.81
2017-06-09T04:02:24.506Z,78.63
2017-06-09T04:03:05.038Z,78.53
2017-06-09T04:03:45.636Z,78.43
2017-06-09T04:04:26.229Z,78.14
2017-06-09T04:05:06.817Z,78.57
2017-06-09T04:05:47.468Z,78.43
2017-06-09T04:06:28.011Z,78.38
2017-06-09T04:07:08.565Z,78.09
2017-06-09T04:07:49.151Z,78.19
2017-06-09T04:08:29.678Z,78.19
2017-06-09T04:09:10.219Z,78.09
2017-06-09T04:09:50.776Z,78.19
2017-06-09T04:10:31.295Z,78.09
2017-06-09T04:11:11.879Z,77.9
2017-06-09T04:11:52.450Z,77.99
2017-06-09T04:12:32.986Z,77.9
2017-06-09T04:13:13.550Z,77.9
2017-06-09T04:13:54.109Z,77.7
2017-06-09T04:14:34.754Z,77.9
2017-06-09T04:15:15.353Z,77.94
2017-06-09T04:15:55.925Z,77.7
2017-06-09T04:16:36.480Z,77.26
2017-06-09T04:17:17.125Z,77.55
2017-06-09T04:17:57.784Z,77.26
2017-06-09T04:18:38.325Z,77.36
2017-06-09T04:19:18.856Z,77.17
2017-06-09T04:19:59.445Z,77.36
2017-06-09T04:20:40.036Z,76.4
2017-06-09T04:21:20.633Z,76.82
2017-06-09T04:22:01.164Z,76.25
2017-06-09T04:22:41.751Z,76.92
2017-06-09T04:23:22.353Z,76.44
2017-06-09T04:24:02.947Z,76.15
2017-06-09T04:24:43.465Z,75.9
2017-06-09T04:25:24.084Z,75.71
2017-06-09T04:26:04.697Z,75.33
2017-06-09T04:26:45.252Z,75.23
2017-06-09T04:27:25.872Z,75.43
2017-06-09T04:28:06.449Z,75.23
2017-06-09T04:28:47.064Z,74.98
2017-06-09T04:29:27.686Z,74.6
2017-06-09T04:30:08.306Z,74.6
2017-06-09T04:30:48.820Z,74.12
2017-06-09T04:31:29.426Z,73.83
2017-06-09T04:32:10.026Z,74.16
2017-06-09T04:32:50.643Z,73.58
2017-06-09T04:33:31.155Z,73.49
2017-06-09T04:34:12.769Z,73.58
2017-06-09T04:34:53.401Z,73.1
2017-06-09T04:35:34.045Z,73.3
2017-06-09T04:36:14.964Z,72.75
2017-06-09T04:36:55.614Z,72.85
2017-06-09T04:37:36.209Z,72.47
2017-06-09T04:38:16.765Z,72.75
2017-06-09T04:38:57.290Z,72.08
2017-06-09T04:39:37.866Z,72.47
2017-06-09T04:40:18.465Z,72.28
2017-06-09T04:40:59.004Z,71.89
2017-06-09T04:41:39.935Z,72.08
2017-06-09T04:42:21.201Z,71.98
2017-06-09T04:43:01.739Z,72.28
2017-06-09T04:43:42.298Z,72.18
2017-06-09T04:44:22.908Z,72.08
2017-06-09T04:45:03.414Z,72.18
2017-06-09T04:45:43.963Z,71.98
2017-06-09T04:46:24.601Z,72.18
2017-06-09T04:47:05.120Z,72.18
2017-06-09T04:47:45.715Z,72.37
2017-06-09T04:48:26.349Z,71.8
2017-06-09T04:49:06.861Z,72.28
2017-06-09T04:49:47.479Z,72.37
2017-06-09T04:50:28.197Z,72.37
2017-06-09T04:51:08.732Z,72.28
2017-06-09T04:51:49.331Z,72.37
2017-06-09T04:52:29.911Z,71.98
2017-06-09T04:53:10.509Z,72.08
2017-06-09T04:53:51.055Z,71.98
2017-06-09T04:54:31.628Z,71.8
2017-06-09T04:55:12.312Z,71.8
2017-06-09T04:55:52.842Z,71.8
2017-06-09T04:56:33.394Z,71.7
2017-06-09T04:57:13.937Z,71.7
2017-06-09T04:57:54.469Z,71.89
2017-06-09T04:58:35.023Z,71.8
2017-06-09T04:59:15.578Z,71.55
2017-06-09T04:59:56.547Z,71.7
2017-06-09T05:00:37.185Z,71.61
2017-06-09T05:01:17.749Z,71.7
2017-06-09T05:01:58.288Z,71.89
2017-06-09T05:02:38.839Z,71.7
2017-06-09T05:03:19.381Z,71.7
2017-06-09T05:03:59.938Z,71.98
2017-06-09T05:04:40.517Z,71.7
2017-06-09T05:05:21.039Z,71.89
2017-06-09T05:06:01.592Z,71.61
2017-06-09T05:06:42.138Z,71.7
2017-06-09T05:07:22.701Z,71.61
2017-06-09T05:08:03.201Z,71.51
2017-06-09T05:08:43.752Z,71.51
2017-06-09T05:09:24.384Z,71.55
2017-06-09T05:10:04.965Z,71.45
2017-06-09T05:10:45.554Z,71.55
2017-06-09T05:11:26.075Z,71.06
2017-06-09T05:12:06.681Z,71.06
2017-06-09T05:12:47.277Z,71.25
2017-06-09T05:13:27.862Z,70.87
2017-06-09T05:14:08.388Z,70.78
2017-06-09T05:14:48.987Z,70.81
2017-06-09T05:15:29.563Z,70.58
2017-06-09T05:16:10.163Z,71.1
2017-06-09T05:16:50.688Z,70.43
2017-06-09T05:17:31.217Z,70.33
2017-06-09T05:18:11.846Z,70.52
2017-06-09T05:18:52.364Z,70.14
2017-06-09T05:19:32.968Z,70.14
2017-06-09T05:20:13.498Z,69.89
2017-06-09T05:20:54.122Z,69.79
2017-06-09T05:21:34.699Z,69.31
2017-06-09T05:22:15.215Z,69.4
2017-06-09T05:22:55.824Z,69.5
2017-06-09T05:23:36.381Z,69.5
2017-06-09T05:24:16.943Z,69.12
2017-06-09T05:24:57.460Z,69.12
2017-06-09T05:25:38.102Z,69.31
2017-06-09T05:26:18.656Z,68.63
2017-06-09T05:26:59.299Z,68.73
2017-06-09T05:27:39.856Z,68.54
2017-06-09T05:28:20.474Z,68.83
2017-06-09T05:29:01.003Z,68.63
2017-06-09T05:29:41.527Z,68.63
2017-06-09T05:30:22.078Z,68.63
2017-06-09T05:31:02.624Z,68.83
2017-06-09T05:31:43.248Z,68.73
2017-06-09T05:32:23.819Z,69.21
2017-06-09T05:33:04.459Z,69.02
2017-06-09T05:33:45.018Z,69.12
2017-06-09T05:34:25.698Z,69.12
2017-06-09T05:35:06.213Z,68.92
2017-06-09T05:35:46.750Z,68.92
2017-06-09T05:36:27.268Z,69.12
2017-06-09T05:37:07.866Z,69.12
2017-06-09T05:37:48.489Z,69.12
2017-06-09T05:38:29.026Z,68.73
2017-06-09T05:39:09.550Z,68.83
2017-06-09T05:39:50.168Z,68.73
2017-06-09T05:40:30.799Z,68.63
2017-06-09T05:41:11.389Z,69.02
2017-06-09T05:41:52.940Z,69.02
2017-06-09T05:42:33.577Z,69.12
2017-06-09T05:43:14.102Z,68.83
2017-06-09T05:43:54.705Z,69.02
2017-06-09T05:44:35.331Z,68.63
2017-06-09T05:45:15.857Z,68.73
2017-06-09T05:45:56.466Z,68.63
2017-06-09T05:46:36.985Z,68.54
2017-06-09T05:47:17.507Z,69.02
2017-06-09T05:47:58.076Z,68.73
2017-06-09T05:48:38.606Z,68.92
2017-06-09T05:49:19.131Z,68.92
2017-06-09T05:49:59.757Z,68.73
2017-06-09T05:50:40.288Z,68.83
2017-06-09T05:51:20.878Z,68.54
2017-06-09T05:52:01.409Z,68.73
2017-06-09T05:52:41.998Z,68.54
2017-06-09T05:53:22.527Z,68.73
2017-06-09T05:54:03.062Z,69.31
2017-06-09T05:54:43.601Z,69.02
2017-06-09T05:55:24.121Z,69.02
2017-06-09T05:56:04.724Z,69.18
2017-06-09T05:56:45.229Z,69.18
2017-06-09T05:57:25.749Z,69.46
2017-06-09T05:58:06.275Z,69.56
2017-06-09T05:58:46.828Z,69.46
2017-06-09T05:59:27.399Z,69.18
2017-06-09T06:00:07.993Z,69.27
2017-06-09T06:00:48.544Z,69.18
2017-06-09T06:01:29.094Z,69.18
2017-06-09T06:02:09.759Z,69.18
2017-06-09T06:02:50.406Z,69.08
2017-06-09T06:03:30.962Z,69.46
2017-06-09T06:04:11.506Z,69.37
2017-06-09T06:04:52.155Z,69.46
2017-06-09T06:05:32.703Z,68.89
2017-06-09T06:06:13.307Z,68.98
2017-06-09T06:06:53.877Z,68.83
2017-06-09T06:07:34.455Z,69.12
2017-06-09T06:08:14.986Z,68.63
2017-06-09T06:08:55.594Z,68.83
2017-06-09T06:09:36.217Z,68.54
2017-06-09T06:10:16.763Z,68.19
2017-06-09T06:10:57.417Z,67.8
2017-06-09T06:11:37.948Z,67.61
2017-06-09T06:12:18.627Z,67.8
2017-06-09T06:12:59.180Z,67.51
2017-06-09T06:13:39.767Z,67.61
2017-06-09T06:14:20.403Z,67.13
2017-06-09T06:15:00.961Z,67.22
2017-06-09T06:15:41.547Z,67.42
2017-06-09T06:16:22.135Z,67.13
2017-06-09T06:17:02.688Z,67.32
2017-06-09T06:17:43.223Z,67.61
2017-06-09T06:18:23.818Z,67.51
2017-06-09T06:19:04.384Z,67.61
2017-06-09T06:19:44.995Z,67.8
2017-06-09T06:20:25.538Z,67.51
2017-06-09T06:21:06.153Z,67.51
2017-06-09T06:21:46.786Z,67.42
2017-06-09T06:22:27.357Z,67.71
2017-06-09T06:23:07.906Z,67.71
2017-06-09T06:23:48.466Z,67.61
2017-06-09T06:24:29.066Z,67.71
2017-06-09T06:25:09.596Z,67.71
2017-06-09T06:25:50.214Z,67.42
2017-06-09T06:26:30.763Z,67.71
2017-06-09T06:27:11.437Z,67.9
2017-06-09T06:27:52.024Z,67.42
2017-06-09T06:28:32.624Z,67.22
2017-06-09T06:29:13.203Z,67.26
2017-06-09T06:29:53.736Z,67.55
2017-06-09T06:30:34.326Z,67.26
2017-06-09T06:31:14.878Z,67.26
2017-06-09T06:31:55.449Z,66.88
2017-06-09T06:32:36.063Z,66.78
2017-06-09T06:33:16.632Z,66.52
2017-06-09T06:33:57.263Z,66.52
2017-06-09T06:34:38.848Z,66.52
2017-06-09T06:35:19.392Z,66.24
2017-06-09T06:35:59.938Z,66.14
2017-06-09T06:36:40.488Z,65.59
2017-06-09T06:37:21.038Z,65.69
2017-06-09T06:38:01.589Z,65.88
2017-06-09T06:38:42.143Z,66.07
2017-06-09T06:39:22.684Z,65.98
2017-06-09T06:40:03.297Z,65.88
2017-06-09T06:40:43.844Z,65.98
2017-06-09T06:41:24.482Z,65.98
2017-06-09T06:42:05.060Z,65.78
2017-06-09T06:42:45.645Z,65.78
2017-06-09T06:43:26.163Z,65.59
2017-06-09T06:44:06.778Z,65.59
2017-06-09T06:44:47.367Z,66.27
2017-06-09T06:45:27.951Z,66.14
2017-06-09T06:46:08.492Z,65.94
2017-06-09T06:46:49.059Z,66.04
2017-06-09T06:47:29.628Z,66.04
2017-06-09T06:48:10.171Z,66.14
2017-06-09T06:48:50.738Z,66.04
2017-06-09T06:49:31.267Z,66.24
2017-06-09T06:50:11.775Z,66.62
2017-06-09T06:50:52.381Z,66.52
2017-06-09T06:51:32.943Z,66.62
2017-06-09T06:52:13.474Z,66.71
2017-06-09T06:52:54.039Z,66.49
2017-06-09T06:53:34.579Z,66.52
2017-06-09T06:54:15.134Z,66.39
2017-06-09T06:54:55.719Z,66.3
2017-06-09T06:55:36.349Z,66.39
2017-06-09T06:56:16.868Z,66.2
2017-06-09T06:56:57.442Z,66.2
2017-06-09T06:57:38.004Z,66.3
2017-06-09T06:58:18.545Z,66.3
2017-06-09T06:58:59.094Z,66.39
2017-06-09T07:53:22.198Z,58.17
2017-06-09T07:54:02.718Z,57.97
2017-06-09T09:21:25.953Z,63.7
2017-06-09T09:22:06.535Z,63.7
2017-06-09T09:22:47.166Z,63.98
2017-06-09T09:23:27.747Z,64.37
2017-06-09T09:24:08.355Z,64.18
2017-06-09T09:24:48.865Z,64.37
2017-06-09T09:25:29.486Z,64.18
2017-06-09T09:26:10.059Z,64.18
2017-06-09T09:26:50.623Z,64.37
2017-06-09T09:27:31.246Z,64.56
2017-06-09T09:28:11.795Z,64.82
2017-06-09T09:28:52.344Z,64.63
2017-06-09T09:29:32.898Z,64.53
2017-06-09T09:30:13.545Z,64.43
2017-06-09T09:30:54.394Z,64.63
2017-06-09T09:31:34.944Z,65.01
2017-06-09T09:32:15.535Z,65.11
2017-06-09T09:32:56.219Z,64.82
2017-06-09T09:33:36.855Z,64.43
2017-06-09T09:34:17.379Z,64.92
2017-06-09T09:34:57.940Z,64.92
2017-06-09T09:35:38.517Z,65.37
2017-06-09T09:36:19.107Z,65.37
2017-06-09T09:36:59.700Z,65.17
2017-06-09T09:37:40.321Z,65.27
2017-06-09T09:38:20.971Z,65.37
2017-06-09T09:39:01.616Z,65.17
2017-06-09T09:39:42.151Z,65.75
2017-06-09T09:40:22.717Z,65.75
2017-06-09T09:41:03.267Z,65.85
2017-06-09T09:41:43.791Z,66.04
2017-06-09T09:42:24.375Z,65.94
2017-06-09T09:43:04.996Z,66.04
2017-06-09T09:43:45.525Z,66.04
2017-06-09T09:44:26.136Z,65.94
2017-06-09T09:45:06.687Z,65.66
2017-06-09T09:45:47.316Z,65.56
2017-06-09T09:46:28.995Z,65.66
2017-06-09T09:47:09.611Z,66.24
2017-06-09T09:47:51.194Z,66.33
2017-06-09T09:48:33.873Z,66.52
2017-06-09T09:49:14.456Z,66.3
2017-06-09T09:49:59.824Z,66.71
2017-06-09T09:50:40.436Z,66.68
2017-06-09T09:51:20.976Z,66.97
2017-06-09T09:52:01.557Z,67.26
2017-06-09T09:52:42.181Z,66.88
2017-06-09T09:53:22.768Z,67.74
2017-06-09T09:54:03.413Z,67.74
2017-06-09T09:54:44.971Z,68.32
2017-06-09T09:55:26.587Z,68.41
2017-06-09T09:56:07.132Z,68.51
2017-06-09T09:56:47.698Z,68.86
2017-06-09T09:57:29.367Z,68.67
2017-06-09T09:58:10.015Z,69.15
2017-06-09T09:58:50.565Z,69.53
2017-06-09T09:59:31.216Z,69.53
2017-06-09T10:00:11.768Z,69.89
2017-06-09T10:00:53.354Z,70.46
2017-06-09T10:01:33.893Z,70.37
2017-06-09T10:02:14.443Z,70.56
2017-06-09T10:02:56.024Z,70.94
2017-06-09T10:03:36.669Z,70.75
2017-06-09T10:04:17.219Z,71.1
2017-06-09T10:04:57.775Z,71
2017-06-09T10:05:38.328Z,71.67
2017-06-09T10:06:18.874Z,71.96
2017-06-09T10:06:59.422Z,72.16
2017-06-09T10:07:41.055Z,72.5
2017-06-09T10:08:21.650Z,72.79
2017-06-09T10:09:02.197Z,72.5
2017-06-09T10:09:42.762Z,73.08
2017-06-09T10:10:23.352Z,73.27
2017-06-09T10:11:03.947Z,73.46
2017-06-09T10:11:44.516Z,73.56
2017-06-09T10:12:25.179Z,73.75
2017-06-09T10:13:05.858Z,73.27
2017-06-09T10:13:46.465Z,73.37
2017-06-09T10:14:27.018Z,73.27
2017-06-09T10:15:07.662Z,73.27
2017-06-09T10:15:48.210Z,73.56
2017-06-09T10:16:28.834Z,73.56
2017-06-09T10:17:09.391Z,73.37
2017-06-09T10:17:49.931Z,73.56
2017-06-09T10:18:30.567Z,73.37
2017-06-09T10:19:11.130Z,73.66
2017-06-09T10:19:52.719Z,73.75
2017-06-09T10:20:33.264Z,73.6
2017-06-09T10:21:13.899Z,73.37
2017-06-09T10:21:54.429Z,73.37
2017-06-09T10:22:35.016Z,73.56
2017-06-09T10:23:15.607Z,73.69
2017-06-09T10:23:56.207Z,73.75
2017-06-09T10:24:36.850Z,73.79
2017-06-09T10:25:17.442Z,74.13
2017-06-09T10:25:58.059Z,74.04
2017-06-09T10:26:38.609Z,73.75
2017-06-09T10:27:19.186Z,73.85
2017-06-09T10:27:59.709Z,74.43
2017-06-09T10:28:40.312Z,74.04
2017-06-09T10:29:21.939Z,74.62
2017-06-09T10:30:02.516Z,74.71
2017-06-09T10:30:43.142Z,74.62
2017-06-09T10:31:23.793Z,74.33
2017-06-09T10:32:04.445Z,74.71
2017-06-09T10:32:44.992Z,74.71
2017-06-09T10:33:25.551Z,75
2017-06-09T10:34:06.104Z,75.1
2017-06-09T10:34:46.663Z,75.2
2017-06-09T10:35:27.202Z,75.2
2017-06-09T10:36:07.731Z,75.15
2017-06-09T10:36:48.328Z,75.45
2017-06-09T10:37:28.952Z,75.82
2017-06-09T10:38:09.482Z,75.82
2017-06-09T10:38:50.092Z,75.82
2017-06-09T10:39:30.955Z,75.82
2017-06-09T10:40:11.541Z,76.5
2017-06-09T10:40:52.205Z,76.21
2017-06-09T10:41:32.725Z,76.84
2017-06-09T10:42:13.325Z,76.46
2017-06-09T10:42:53.845Z,76.56
2017-06-09T10:43:34.462Z,76.65
2017-06-09T10:44:15.048Z,76.56
2017-06-09T10:44:55.630Z,77.13
2017-06-09T10:45:36.154Z,77.33
2017-06-09T10:46:16.759Z,77.23
2017-06-09T10:46:57.310Z,77.51
2017-06-09T10:47:37.846Z,77.13
2017-06-09T10:48:18.375Z,77.23
2017-06-09T10:48:58.962Z,77.71
2017-06-09T10:49:39.513Z,77.71
2017-06-09T10:50:20.071Z,77.71
2017-06-09T10:51:00.691Z,78.09
2017-06-09T10:51:41.253Z,77.9
2017-06-09T10:52:21.846Z,77.58
2017-06-09T10:53:02.431Z,78.19
2017-06-09T10:53:42.978Z,78.28
2017-06-09T10:54:23.551Z,78.09
2017-06-09T10:55:04.150Z,78.19
2017-06-09T10:55:44.745Z,78.19
2017-06-09T10:56:25.255Z,78.72
2017-06-09T10:57:06.292Z,78.67
2017-06-09T10:57:47.889Z,78.77
2017-06-09T10:58:28.483Z,78.34
2017-06-09T10:59:09.020Z,78.77
2017-06-09T10:59:49.594Z,78.77
2017-06-09T11:00:30.194Z,78.72
2017-06-09T11:01:10.796Z,78.86
2017-06-09T11:01:51.341Z,78.77
2017-06-09T11:02:31.893Z,78.96
2017-06-09T11:03:14.494Z,78.82
2017-06-09T11:03:55.033Z,79.05
2017-06-09T11:04:35.693Z,78.96
2017-06-09T11:05:16.218Z,79.01
2017-06-09T11:05:57.774Z,79.01
2017-06-09T11:06:38.286Z,79.14